Time;durP1;ratioP1;P1;durP2;ratioP2;P2;SDS_P1;SDS_P2;PMS_P1;PMS_P2;Temp;Humidity;BMP_temperature;BMP_pressure;BME280_temperature;BME280_humidity;BME280_pressure;Samples;Min_cycle;Max_cycle;Signal;HPM_P1;HPM_P2
2022/03/09 00:01:38;;;;;;;2.70;0.70;;;1.90;99.90;;;;;;5019310;28;20033;-75
2022/03/09 00:04:04;;;;;;;2.10;0.75;;;2.00;99.90;;;;;;5015237;28;20026;-75
2022/03/09 00:06:30;;;;;;;4.40;1.40;;;2.20;99.90;;;;;;5016794;28;20025;-75
2022/03/09 00:08:56;;;;;;;2.72;1.25;;;2.30;99.90;;;;;;5015641;28;20076;-75
2022/03/09 00:11:22;;;;;;;3.45;1.30;;;2.30;99.90;;;;;;4999954;28;20406;-75
2022/03/09 00:13:48;;;;;;;4.30;1.80;;;2.30;99.90;;;;;;5015614;28;20030;-76
2022/03/09 00:16:14;;;;;;;3.55;1.05;;;2.40;99.90;;;;;;5009238;28;20392;-75
2022/03/09 00:18:41;;;;;;;3.30;1.23;;;2.40;99.90;;;;;;5010134;28;20033;-75
2022/03/09 00:21:07;;;;;;;3.40;1.00;;;2.40;99.90;;;;;;4998568;28;20033;-75
2022/03/09 00:23:33;;;;;;;3.38;1.30;;;2.40;99.90;;;;;;5014783;28;20037;-75
2022/03/09 00:25:58;;;;;;;2.67;1.25;;;2.40;99.90;;;;;;5016838;28;20160;-75
2022/03/09 00:28:25;;;;;;;3.53;1.15;;;2.40;99.90;;;;;;5014699;28;20056;-75
2022/03/09 00:30:50;;;;;;;3.60;1.30;;;2.40;99.90;;;;;;5008644;28;20628;-75
2022/03/09 00:33:16;;;;;;;3.92;0.93;;;2.50;99.90;;;;;;4993353;28;20394;-75
2022/03/09 00:35:44;;;;;;;4.00;1.52;;;2.40;99.90;;;;;;5015382;28;20075;-75
2022/03/09 00:38:10;;;;;;;3.10;1.27;;;2.50;99.90;;;;;;5019914;28;20033;-75
2022/03/09 00:40:36;;;;;;;2.95;1.00;;;2.40;99.90;;;;;;5015550;28;20034;-75
2022/03/09 00:43:01;;;;;;;3.13;1.10;;;2.40;99.90;;;;;;5020875;28;20591;-76
2022/03/09 00:45:27;;;;;;;2.95;1.20;;;2.40;99.90;;;;;;5005289;28;20026;-76
2022/03/09 00:47:52;;;;;;;3.08;1.00;;;2.40;99.90;;;;;;5019606;28;20540;-75
2022/03/09 00:50:18;;;;;;;4.40;0.90;;;2.40;99.90;;;;;;5019714;28;20060;-76
2022/03/09 00:52:47;;;;;;;2.72;1.10;;;2.40;99.90;;;;;;5001487;28;20124;-75
2022/03/09 00:55:13;;;;;;;3.85;1.05;;;2.50;99.90;;;;;;5018850;28;20060;-75
2022/03/09 00:57:40;;;;;;;2.78;1.00;;;2.40;99.90;;;;;;5019388;28;20041;-76
2022/03/09 01:00:07;;;;;;;2.35;0.75;;;2.40;99.90;;;;;;5018346;28;20033;-75
2022/03/09 01:02:38;;;;;;;3.20;1.08;;;2.50;99.90;;;;;;5012093;28;20044;-75
2022/03/09 01:05:04;;;;;;;5.53;1.73;;;2.50;99.90;;;;;;4997034;28;20033;-75
2022/03/09 01:07:30;;;;;;;2.60;1.33;;;2.50;99.90;;;;;;5033774;28;20048;-75
2022/03/09 01:09:55;;;;;;;3.55;1.40;;;2.40;99.90;;;;;;5017624;28;20381;-75
2022/03/09 01:12:21;;;;;;;4.65;1.17;;;2.50;99.90;;;;;;5024089;28;20029;-75
2022/03/09 01:14:47;;;;;;;2.83;0.98;;;2.40;99.90;;;;;;5019173;28;20370;-75
2022/03/09 01:17:12;;;;;;;2.33;1.00;;;2.30;99.90;;;;;;5017896;28;22003;-75
2022/03/09 01:19:38;;;;;;;3.30;1.10;;;2.30;99.90;;;;;;5017499;28;20940;-75
2022/03/09 01:22:04;;;;;;;4.03;1.33;;;2.40;99.90;;;;;;5011060;28;20059;-75
2022/03/09 01:24:29;;;;;;;2.83;0.90;;;2.40;99.90;;;;;;5000395;28;20045;-75
2022/03/09 01:26:55;;;;;;;2.72;1.10;;;2.30;99.90;;;;;;4994786;28;20025;-76
2022/03/09 01:29:20;;;;;;;2.60;0.88;;;2.40;99.90;;;;;;5012277;28;20041;-75
2022/03/09 01:31:46;;;;;;;3.22;1.17;;;2.40;99.90;;;;;;5022780;28;20029;-76
2022/03/09 01:34:11;;;;;;;2.70;1.00;;;2.30;99.90;;;;;;5019212;28;20112;-75
2022/03/09 01:36:37;;;;;;;2.50;0.77;;;2.20;99.90;;;;;;4994908;28;20095;-75
2022/03/09 01:39:03;;;;;;;2.50;1.08;;;2.10;99.90;;;;;;5018335;28;20509;-75
2022/03/09 01:41:29;;;;;;;2.50;0.90;;;2.10;99.90;;;;;;5017330;28;20557;-75
2022/03/09 01:44:12;;;;;;;3.63;1.30;;;2.10;99.90;;;;;;5011069;28;20037;-75
2022/03/09 01:46:39;;;;;;;2.42;0.70;;;2.20;99.90;;;;;;5018190;28;22338;-75
2022/03/09 01:49:06;;;;;;;2.70;0.80;;;2.10;99.90;;;;;;5010986;28;20056;-75
2022/03/09 01:51:32;;;;;;;2.13;0.70;;;2.00;99.90;;;;;;4994852;28;20044;-75
2022/03/09 01:53:59;;;;;;;3.83;0.98;;;2.00;99.90;;;;;;4995993;28;20039;-75
2022/03/09 01:56:25;;;;;;;3.38;1.15;;;2.00;99.90;;;;;;5016994;28;20040;-75
2022/03/09 01:58:51;;;;;;;2.40;0.98;;;1.90;99.90;;;;;;5016881;28;20025;-75
2022/03/09 02:01:16;;;;;;;2.22;0.80;;;1.70;99.90;;;;;;4989495;28;20532;-75
2022/03/09 02:03:42;;;;;;;2.83;0.88;;;1.70;99.90;;;;;;5001717;28;20071;-75
2022/03/09 02:06:07;;;;;;;3.38;0.90;;;1.70;99.90;;;;;;5016562;28;20099;-75
2022/03/09 02:11:18;;;;;;;2.17;0.70;;;1.80;99.90;;;;;;5012099;28;20029;-75
2022/03/09 02:13:44;;;;;;;3.78;0.93;;;1.70;99.90;;;;;;5033933;28;20038;-75
2022/03/09 02:16:14;;;;;;;3.10;1.05;;;1.80;99.90;;;;;;4994862;28;20036;-75
2022/03/09 02:18:39;;;;;;;2.78;0.85;;;1.70;99.90;;;;;;5018364;28;20037;-75
2022/03/09 02:21:08;;;;;;;2.15;0.90;;;1.70;99.90;;;;;;4993987;28;20091;-75
2022/03/09 02:23:34;;;;;;;2.85;0.95;;;1.80;99.90;;;;;;5015939;28;20490;-76
2022/03/09 02:26:00;;;;;;;2.55;0.77;;;1.70;99.90;;;;;;5018831;28;20036;-75
2022/03/09 02:28:25;;;;;;;2.17;0.80;;;1.70;99.90;;;;;;5016159;28;20589;-75
2022/03/09 02:30:56;;;;;;;2.17;0.70;;;1.70;99.90;;;;;;5016370;28;20028;-75
2022/03/09 02:33:21;;;;;;;3.38;1.20;;;1.60;99.90;;;;;;5032753;28;20094;-75
2022/03/09 02:35:47;;;;;;;2.67;0.90;;;1.70;99.90;;;;;;5020987;28;20029;-75
2022/03/09 02:38:13;;;;;;;3.28;0.80;;;1.80;99.90;;;;;;4999544;28;20187;-75
2022/03/09 02:40:39;;;;;;;3.17;1.20;;;1.70;99.90;;;;;;4999911;28;20029;-75
2022/03/09 02:43:05;;;;;;;2.92;0.93;;;1.60;99.90;;;;;;5021441;28;20026;-75
2022/03/09 02:45:30;;;;;;;3.83;1.05;;;1.50;99.90;;;;;;5010445;28;20055;-75
2022/03/09 02:47:56;;;;;;;2.53;0.82;;;1.40;99.90;;;;;;5016870;28;20037;-75
2022/03/09 02:50:22;;;;;;;2.22;0.73;;;1.30;99.90;;;;;;4992442;28;20751;-75
2022/03/09 02:52:48;;;;;;;2.33;0.80;;;1.40;99.90;;;;;;4995069;28;20033;-75
2022/03/09 02:55:14;;;;;;;2.40;0.70;;;1.40;99.90;;;;;;5008998;28;20040;-75
2022/03/09 02:57:41;;;;;;;2.60;0.70;;;1.30;99.90;;;;;;5033026;28;20037;-75
2022/03/09 03:00:08;;;;;;;4.25;0.90;;;1.40;99.90;;;;;;5017813;28;20056;-75
2022/03/09 03:02:34;;;;;;;2.40;0.68;;;1.50;99.90;;;;;;5017833;28;20030;-75
2022/03/09 03:05:00;;;;;;;2.63;0.65;;;1.40;99.90;;;;;;5008562;28;20055;-75
2022/03/09 03:07:26;;;;;;;2.03;0.68;;;1.40;99.90;;;;;;5016883;28;20458;-75
2022/03/09 03:09:51;;;;;;;2.85;0.82;;;1.40;99.90;;;;;;5000240;28;20029;-75
2022/03/09 03:12:17;;;;;;;3.13;0.70;;;1.30;99.90;;;;;;4999838;28;20028;-75
2022/03/09 03:14:42;;;;;;;2.33;0.70;;;1.40;99.90;;;;;;5016648;28;20496;-75
2022/03/09 03:17:08;;;;;;;3.03;1.05;;;1.40;99.90;;;;;;4993843;28;20415;-75
2022/03/09 03:19:34;;;;;;;2.15;0.80;;;1.40;99.90;;;;;;5015181;28;20116;-75
2022/03/09 03:22:00;;;;;;;2.15;0.77;;;1.30;99.90;;;;;;5000205;28;20018;-75
2022/03/09 03:24:27;;;;;;;2.00;0.65;;;1.30;99.90;;;;;;5018062;28;20048;-74
2022/03/09 03:26:53;;;;;;;2.92;0.68;;;1.30;99.90;;;;;;5017260;28;20036;-75
2022/03/09 03:29:18;;;;;;;2.17;0.73;;;1.10;99.90;;;;;;4999335;28;20394;-75
2022/03/09 03:31:44;;;;;;;1.75;0.65;;;1.20;99.90;;;;;;5015264;28;20049;-74
2022/03/09 03:34:09;;;;;;;2.72;0.68;;;1.20;99.90;;;;;;5021091;28;20138;-75
2022/03/09 03:36:35;;;;;;;1.90;0.75;;;1.30;99.90;;;;;;5009084;28;20021;-75
2022/03/09 03:39:02;;;;;;;2.28;0.70;;;1.30;99.90;;;;;;4999144;28;20510;-75
2022/03/09 03:41:27;;;;;;;3.42;0.88;;;1.30;99.90;;;;;;5031992;28;20033;-75
2022/03/09 03:43:54;;;;;;;1.88;0.65;;;1.30;99.90;;;;;;5010656;28;20040;-75
2022/03/09 03:46:19;;;;;;;3.17;1.02;;;1.30;99.90;;;;;;5008180;28;20056;-75
2022/03/09 03:48:45;;;;;;;3.22;0.70;;;1.20;99.90;;;;;;5019827;28;20045;-74
2022/03/09 03:51:10;;;;;;;2.38;0.73;;;1.20;99.90;;;;;;4999141;28;20112;-75
2022/03/09 03:53:36;;;;;;;2.88;0.75;;;1.20;99.90;;;;;;4998749;28;20041;-75
2022/03/09 03:56:02;;;;;;;1.98;0.63;;;1.10;99.90;;;;;;4989149;28;20083;-75
2022/03/09 03:58:27;;;;;;;2.13;0.57;;;1.10;99.90;;;;;;5004777;28;20037;-75
2022/03/09 04:00:53;;;;;;;1.98;0.93;;;1.10;99.90;;;;;;5021729;28;20041;-75
2022/03/09 04:03:19;;;;;;;2.92;0.70;;;1.20;99.90;;;;;;5016572;28;20060;-74
2022/03/09 04:05:44;;;;;;;1.67;0.60;;;1.20;99.90;;;;;;5015065;28;20076;-75
2022/03/09 04:08:10;;;;;;;2.20;0.77;;;1.10;99.90;;;;;;4999376;28;20506;-75
2022/03/09 04:10:35;;;;;;;2.38;0.85;;;1.10;99.90;;;;;;5021012;28;20025;-75
2022/03/09 04:13:03;;;;;;;2.05;0.70;;;1.10;99.90;;;;;;5031319;28;20146;-75
2022/03/09 04:15:33;;;;;;;2.25;0.63;;;1.10;99.90;;;;;;5009995;28;20037;-75
2022/03/09 04:17:59;;;;;;;2.40;0.70;;;1.20;99.90;;;;;;5008455;28;20025;-75
2022/03/09 04:20:25;;;;;;;2.78;1.27;;;1.20;99.90;;;;;;5018514;28;20022;-75
2022/03/09 04:22:51;;;;;;;2.88;0.98;;;1.10;99.90;;;;;;5019210;28;20041;-75
2022/03/09 04:25:16;;;;;;;3.88;1.20;;;1.00;99.90;;;;;;5018919;28;20037;-75
2022/03/09 04:27:42;;;;;;;3.00;0.82;;;1.10;99.90;;;;;;5030359;28;20033;-75
2022/03/09 04:30:09;;;;;;;4.00;0.88;;;1.10;99.90;;;;;;5019276;28;20481;-75
2022/03/09 04:32:36;;;;;;;2.53;0.80;;;1.10;99.90;;;;;;5002985;28;20033;-75
2022/03/09 04:35:04;;;;;;;3.15;0.73;;;1.00;99.90;;;;;;5018811;28;20029;-75
2022/03/09 04:37:30;;;;;;;1.85;0.77;;;1.00;99.90;;;;;;5001726;28;20470;-75
2022/03/09 04:39:58;;;;;;;2.47;0.80;;;1.00;99.90;;;;;;5003568;28;20041;-75
2022/03/09 04:42:24;;;;;;;1.85;0.57;;;1.00;99.90;;;;;;5017689;28;20478;-75
2022/03/09 04:44:49;;;;;;;1.90;0.60;;;0.90;99.90;;;;;;5011749;28;20036;-75
2022/03/09 04:47:15;;;;;;;2.63;0.70;;;0.90;99.90;;;;;;5001622;28;20072;-74
2022/03/09 04:49:41;;;;;;;1.75;0.60;;;0.90;99.90;;;;;;5019988;28;20474;-74
2022/03/09 04:52:07;;;;;;;2.22;0.63;;;0.90;99.90;;;;;;5012829;28;20032;-75
2022/03/09 04:54:33;;;;;;;2.47;0.60;;;0.90;99.90;;;;;;4991813;28;20072;-74
2022/03/09 04:56:59;;;;;;;2.20;0.75;;;1.00;99.90;;;;;;5018283;28;20149;-75
2022/03/09 04:59:25;;;;;;;5.00;0.80;;;1.00;99.90;;;;;;5001313;28;20116;-75
2022/03/09 05:01:51;;;;;;;2.92;0.60;;;0.90;99.90;;;;;;5018092;28;20102;-75
2022/03/09 05:04:16;;;;;;;2.30;0.70;;;0.80;99.90;;;;;;5011805;28;20072;-75
2022/03/09 05:06:42;;;;;;;2.00;0.65;;;0.80;99.90;;;;;;5018007;28;20413;-75
2022/03/09 05:09:08;;;;;;;3.08;0.80;;;0.70;99.90;;;;;;5018114;28;20078;-74
2022/03/09 05:11:33;;;;;;;3.38;0.80;;;0.70;99.90;;;;;;5017241;28;20637;-75
2022/03/09 05:13:59;;;;;;;2.40;0.60;;;0.60;99.90;;;;;;5018908;28;20112;-75
2022/03/09 05:16:24;;;;;;;1.90;0.55;;;0.50;99.90;;;;;;5018083;28;20036;-75
2022/03/09 05:18:50;;;;;;;2.45;0.65;;;0.40;99.90;;;;;;5023775;28;20080;-74
2022/03/09 05:21:15;;;;;;;2.55;0.65;;;0.40;99.90;;;;;;5034434;28;20030;-74
2022/03/09 05:23:41;;;;;;;2.05;0.70;;;0.30;99.90;;;;;;5017435;28;20030;-75
2022/03/09 05:26:07;;;;;;;2.83;0.90;;;0.20;99.90;;;;;;5012343;28;20650;-75
2022/03/09 05:28:34;;;;;;;2.40;0.80;;;0.20;99.90;;;;;;5016357;28;20155;-75
2022/03/09 05:31:00;;;;;;;2.83;1.00;;;0.30;99.90;;;;;;5017978;28;20386;-74
2022/03/09 05:33:25;;;;;;;2.05;0.70;;;0.20;99.90;;;;;;5001638;28;20172;-74
2022/03/09 05:35:51;;;;;;;2.67;1.35;;;0.30;99.90;;;;;;5011165;28;20120;-75
2022/03/09 05:38:16;;;;;;;3.03;0.75;;;0.10;99.90;;;;;;5023392;28;22223;-75
2022/03/09 05:40:42;;;;;;;4.03;0.70;;;0.00;99.90;;;;;;5023569;28;20124;-75
2022/03/09 05:43:07;;;;;;;1.65;0.60;;;-0.10;99.90;;;;;;5018184;28;20037;-75
2022/03/09 05:45:33;;;;;;;3.13;0.60;;;0.00;99.90;;;;;;5017850;28;20029;-75
2022/03/09 05:47:59;;;;;;;2.08;0.82;;;-0.10;99.90;;;;;;5010817;28;20107;-75
2022/03/09 05:50:24;;;;;;;2.92;1.00;;;-0.20;99.90;;;;;;5018079;28;20168;-75
2022/03/09 05:52:50;;;;;;;3.35;0.70;;;-0.30;99.90;;;;;;5017787;28;20052;-75
2022/03/09 05:55:16;;;;;;;3.30;1.20;;;-0.50;99.90;;;;;;5017127;28;20351;-74
2022/03/09 05:57:42;;;;;;;2.25;0.93;;;-0.50;99.90;;;;;;5018421;28;20025;-75
2022/03/09 06:00:08;;;;;;;2.53;0.90;;;-0.40;99.90;;;;;;5016920;28;20482;-74
2022/03/09 06:02:37;;;;;;;3.28;0.82;;;-0.50;99.90;;;;;;5016365;28;20029;-74
2022/03/09 06:05:03;;;;;;;3.10;1.17;;;-0.50;99.90;;;;;;5017061;28;20056;-74
2022/03/09 06:07:30;;;;;;;2.83;0.80;;;-0.70;99.90;;;;;;4994946;28;20374;-74
2022/03/09 06:09:56;;;;;;;2.95;0.90;;;-0.60;99.90;;;;;;4994631;28;20049;-74
2022/03/09 06:12:22;;;;;;;3.15;0.93;;;-0.60;99.90;;;;;;5017548;28;20029;-74
2022/03/09 06:14:48;;;;;;;4.03;0.93;;;-0.70;99.90;;;;;;5032814;28;20025;-74
2022/03/09 06:17:14;;;;;;;5.18;1.83;;;-0.80;99.90;;;;;;4995918;28;20080;-74
2022/03/09 06:19:40;;;;;;;2.45;0.98;;;-0.90;99.90;;;;;;5009203;28;20033;-74
2022/03/09 06:22:05;;;;;;;2.42;0.95;;;-0.80;99.90;;;;;;5022155;28;20032;-74
2022/03/09 06:24:31;;;;;;;3.10;0.82;;;-0.80;99.90;;;;;;5015877;28;20434;-75
2022/03/09 06:26:57;;;;;;;2.65;1.10;;;-0.80;99.90;;;;;;5017180;28;20478;-74
2022/03/09 06:29:22;;;;;;;4.28;0.95;;;-0.90;99.90;;;;;;5016154;28;20264;-75
2022/03/09 06:31:48;;;;;;;5.28;0.90;;;-0.90;99.90;;;;;;4999029;28;20112;-75
2022/03/09 06:34:14;;;;;;;4.47;1.40;;;-0.90;99.90;;;;;;5015718;28;20029;-75
2022/03/09 06:36:44;;;;;;;4.07;1.70;;;-0.90;99.90;;;;;;4997531;28;20032;-76
2022/03/09 06:39:15;;;;;;;2.85;1.02;;;-1.00;99.90;;;;;;4992827;28;20083;-75
2022/03/09 06:41:43;;;;;;;2.35;0.60;;;-1.00;99.90;;;;;;4988487;28;20029;-75
2022/03/09 06:44:10;;;;;;;2.72;0.80;;;-0.90;99.90;;;;;;5028148;28;20468;-74
2022/03/09 06:46:36;;;;;;;3.15;0.98;;;-0.90;99.90;;;;;;5029156;28;20049;-75
2022/03/09 06:49:02;;;;;;;2.80;0.75;;;-1.00;99.90;;;;;;5024060;28;20564;-75
2022/03/09 06:51:28;;;;;;;3.13;0.70;;;-0.80;99.90;;;;;;5006838;28;20397;-75
2022/03/09 06:53:54;;;;;;;2.65;0.60;;;-0.70;99.90;;;;;;5015012;28;20052;-75
2022/03/09 06:56:19;;;;;;;2.47;0.70;;;-0.50;99.90;;;;;;5007432;28;20035;-75
2022/03/09 06:58:45;;;;;;;2.65;0.63;;;-0.50;99.90;;;;;;5014247;28;20116;-74
2022/03/09 07:01:11;;;;;;;2.78;0.60;;;-0.30;99.90;;;;;;5017532;28;20743;-74
2022/03/09 07:03:37;;;;;;;2.10;0.68;;;-0.10;99.90;;;;;;4996393;28;20037;-74
2022/03/09 07:06:03;;;;;;;2.30;0.70;;;0.10;99.90;;;;;;4990570;28;20488;-74
2022/03/09 07:08:28;;;;;;;3.10;1.02;;;0.20;99.90;;;;;;4996350;28;20045;-74
2022/03/09 07:10:54;;;;;;;3.15;1.10;;;0.30;99.90;;;;;;5008192;28;20117;-74
2022/03/09 07:13:19;;;;;;;2.85;1.00;;;0.50;99.90;;;;;;5007487;28;20030;-75
2022/03/09 07:15:45;;;;;;;4.22;1.10;;;0.60;99.90;;;;;;5020607;28;20034;-75
2022/03/09 07:18:11;;;;;;;3.47;0.90;;;0.80;99.90;;;;;;5008268;28;20608;-74
2022/03/09 07:20:37;;;;;;;2.65;1.02;;;1.00;99.90;;;;;;5008625;28;20056;-74
2022/03/09 07:23:02;;;;;;;2.60;1.10;;;1.20;99.90;;;;;;5015584;28;20033;-74
2022/03/09 07:25:28;;;;;;;4.13;0.88;;;1.20;99.90;;;;;;5008003;28;20676;-74
2022/03/09 07:27:54;;;;;;;2.58;0.98;;;1.30;99.90;;;;;;4999532;28;20052;-74
2022/03/09 07:30:19;;;;;;;2.97;0.75;;;1.30;99.90;;;;;;5016169;28;20022;-75
2022/03/09 07:32:45;;;;;;;2.90;1.23;;;1.30;99.90;;;;;;5015550;28;20017;-75
2022/03/09 07:35:11;;;;;;;3.35;0.90;;;1.50;99.90;;;;;;5014818;28;20034;-75
2022/03/09 07:37:37;;;;;;;2.80;0.90;;;1.60;99.90;;;;;;5016159;28;20029;-75
2022/03/09 07:40:04;;;;;;;3.80;1.25;;;1.70;99.90;;;;;;5014798;28;22431;-75
2022/03/09 07:42:30;;;;;;;3.17;1.17;;;1.70;99.90;;;;;;5013975;28;20457;-75
2022/03/09 07:44:56;;;;;;;2.20;0.80;;;1.90;99.90;;;;;;5018647;28;20033;-74
2022/03/09 07:47:22;;;;;;;4.25;1.77;;;2.00;99.90;;;;;;5012305;28;20126;-75
2022/03/09 07:49:47;;;;;;;3.72;1.00;;;2.00;99.90;;;;;;5028860;28;20045;-75
2022/03/09 07:52:13;;;;;;;4.15;1.10;;;2.10;99.90;;;;;;5013333;28;20037;-75
2022/03/09 07:54:39;;;;;;;2.30;0.85;;;2.30;99.90;;;;;;4990540;28;20069;-75
2022/03/09 07:57:05;;;;;;;3.08;1.05;;;2.40;99.90;;;;;;5010570;28;20044;-75
2022/03/09 07:59:30;;;;;;;2.45;1.05;;;2.60;99.90;;;;;;5022445;28;20033;-75
2022/03/09 08:01:56;;;;;;;1.85;0.70;;;2.70;99.90;;;;;;5017328;28;20029;-75
2022/03/09 08:04:23;;;;;;;2.22;0.80;;;2.90;99.90;;;;;;4994782;28;20039;-75
2022/03/09 08:06:50;;;;;;;2.95;0.80;;;3.10;99.90;;;;;;4994615;28;20029;-75
2022/03/09 08:09:17;;;;;;;3.25;0.80;;;3.30;99.90;;;;;;4999170;28;20113;-75
2022/03/09 08:11:43;;;;;;;4.40;1.27;;;3.60;99.90;;;;;;5016016;28;20037;-75
2022/03/09 08:14:10;;;;;;;3.88;0.98;;;3.80;99.90;;;;;;5017975;28;20040;-75
2022/03/09 08:16:35;;;;;;;3.20;1.40;;;3.90;99.90;;;;;;5016449;28;20030;-75
2022/03/09 08:19:02;;;;;;;2.65;0.95;;;4.10;99.90;;;;;;4994500;28;20402;-75
2022/03/09 08:21:27;;;;;;;3.55;1.10;;;4.20;99.90;;;;;;5011677;28;20029;-75
2022/03/09 08:23:53;;;;;;;3.45;1.50;;;4.50;99.90;;;;;;5000051;28;20033;-76
2022/03/09 08:26:19;;;;;;;3.33;1.17;;;4.60;99.90;;;;;;5015553;28;20560;-75
2022/03/09 08:28:45;;;;;;;3.22;1.80;;;4.80;99.90;;;;;;5033024;28;20488;-75
2022/03/09 08:31:11;;;;;;;4.40;1.52;;;5.00;99.90;;;;;;5032547;28;20060;-75
2022/03/09 08:33:36;;;;;;;3.97;1.40;;;5.00;99.90;;;;;;5000967;28;20061;-76
2022/03/09 08:36:04;;;;;;;5.00;1.60;;;5.10;99.90;;;;;;5016411;28;20408;-76
2022/03/09 08:38:29;;;;;;;3.75;1.30;;;5.30;99.90;;;;;;5000783;28;20033;-75
2022/03/09 08:40:55;;;;;;;5.47;2.15;;;5.40;99.90;;;;;;5001294;28;20108;-75
2022/03/09 08:43:21;;;;;;;6.68;2.17;;;5.60;99.90;;;;;;4994537;28;20061;-76
2022/03/09 08:45:47;;;;;;;4.20;1.75;;;5.60;99.90;;;;;;5012593;28;20057;-75
2022/03/09 08:48:13;;;;;;;4.32;1.77;;;5.70;99.90;;;;;;5018117;28;20030;-76
2022/03/09 08:50:38;;;;;;;5.75;1.52;;;5.90;99.90;;;;;;4997011;28;20508;-75
2022/03/09 08:53:04;;;;;;;3.38;1.55;;;6.10;99.90;;;;;;5019020;28;20029;-76
2022/03/09 08:55:30;;;;;;;4.97;1.67;;;6.20;99.90;;;;;;5017680;28;20439;-76
2022/03/09 08:57:56;;;;;;;4.55;1.63;;;6.30;99.90;;;;;;5020372;28;20512;-76
2022/03/09 09:00:22;;;;;;;3.92;1.55;;;6.30;99.90;;;;;;4995305;28;20029;-76
2022/03/09 09:02:48;;;;;;;2.67;1.48;;;6.50;99.90;;;;;;5001302;28;20382;-76
2022/03/09 09:05:14;;;;;;;4.38;1.73;;;6.70;99.90;;;;;;4991303;28;20048;-75
2022/03/09 09:07:39;;;;;;;5.55;1.63;;;6.90;99.90;;;;;;5011347;28;20045;-75
2022/03/09 09:10:06;;;;;;;4.40;1.83;;;7.00;99.90;;;;;;5017854;28;20041;-75
2022/03/09 09:12:32;;;;;;;5.13;1.73;;;7.10;99.90;;;;;;5013848;28;20489;-76
2022/03/09 09:14:58;;;;;;;3.72;1.60;;;7.10;99.90;;;;;;4999764;28;20083;-76
2022/03/09 09:17:23;;;;;;;3.00;1.58;;;7.30;99.90;;;;;;5014754;28;20030;-75
2022/03/09 09:19:49;;;;;;;3.28;1.60;;;7.40;99.90;;;;;;5010043;28;20032;-75
2022/03/09 09:22:14;;;;;;;6.68;2.40;;;7.60;99.90;;;;;;5014569;28;20462;-75
2022/03/09 09:24:41;;;;;;;7.00;1.77;;;7.70;99.90;;;;;;5016405;28;20546;-76
2022/03/09 09:27:06;;;;;;;3.03;1.60;;;7.70;99.90;;;;;;5010521;28;20045;-76
2022/03/09 09:29:32;;;;;;;5.00;2.40;;;7.70;99.90;;;;;;5016646;28;20115;-76
2022/03/09 09:31:58;;;;;;;4.47;2.33;;;7.80;99.90;;;;;;5016057;28;20037;-76
2022/03/09 09:34:23;;;;;;;3.30;1.63;;;8.00;99.90;;;;;;5015526;28;20117;-76
2022/03/09 09:36:49;;;;;;;4.68;1.85;;;8.10;99.90;;;;;;4998938;28;20516;-76
2022/03/09 09:39:16;;;;;;;3.33;1.88;;;8.10;99.90;;;;;;5014992;28;20026;-76
2022/03/09 09:41:43;;;;;;;3.85;1.63;;;8.40;99.90;;;;;;5015960;28;20036;-76
2022/03/09 09:44:13;;;;;;;3.33;1.73;;;8.40;99.90;;;;;;5031183;28;20033;-75
2022/03/09 09:46:41;;;;;;;5.53;1.52;;;8.50;99.90;;;;;;5015229;28;20077;-75
2022/03/09 09:49:10;;;;;;;2.97;1.63;;;8.60;99.90;;;;;;5009330;28;20045;-75
2022/03/09 09:51:39;;;;;;;3.65;1.60;;;8.80;99.90;;;;;;4998802;28;20036;-76
2022/03/09 09:54:05;;;;;;;3.85;1.35;;;8.90;99.90;;;;;;4998613;28;20041;-76
2022/03/09 09:56:35;;;;;;;3.53;1.58;;;8.90;99.90;;;;;;5014537;28;20025;-76
2022/03/09 09:59:01;;;;;;;3.50;1.70;;;9.00;99.90;;;;;;4988422;28;20090;-76
2022/03/09 10:01:27;;;;;;;3.28;1.30;;;9.20;99.90;;;;;;4992269;28;20042;-76
2022/03/09 10:03:53;;;;;;;3.30;1.85;;;9.50;99.90;;;;;;4987693;28;20030;-76
2022/03/09 10:06:19;;;;;;;4.65;2.25;;;9.50;99.90;;;;;;5016394;28;20030;-76
2022/03/09 10:09:00;;;;;;;6.88;2.95;;;9.30;99.90;;;;;;5015070;28;20053;-75
2022/03/09 10:12:04;;;;;;;4.93;2.33;;;9.50;99.90;;;;;;4993800;28;20029;-76
2022/03/09 10:14:56;;;;;;;6.53;2.03;;;9.90;99.90;;;;;;5009246;28;20037;-76
2022/03/09 10:17:32;;;;;;;2.95;1.27;;;9.80;99.90;;;;;;5002708;28;20033;-75
2022/03/09 10:20:08;;;;;;;4.65;2.78;;;10.00;99.90;;;;;;5005438;28;20398;-76
2022/03/09 10:22:35;;;;;;;2.75;1.15;;;10.30;99.90;;;;;;4994503;28;20034;-76
2022/03/09 10:25:10;;;;;;;4.78;1.42;;;10.40;99.90;;;;;;5017596;28;20031;-76
2022/03/09 10:27:43;;;;;;;2.67;1.15;;;10.50;99.90;;;;;;5013506;28;20033;-75
2022/03/09 10:30:38;;;;;;;4.10;1.90;;;10.60;99.90;;;;;;5032454;28;20033;-77
2022/03/09 10:33:09;;;;;;;3.85;1.90;;;10.60;99.90;;;;;;5015664;28;20034;-77
2022/03/09 10:35:34;;;;;;;;;;;10.80;99.90;;;;;;5016393;28;20029;-76
2022/03/09 10:38:06;;;;;;;2.70;1.33;;;10.80;99.90;;;;;;5011063;28;20364;-76
2022/03/09 10:40:38;;;;;;;4.55;2.72;;;10.70;99.90;;;;;;4994050;28;20132;-76
2022/03/09 10:43:11;;;;;;;4.18;2.47;;;10.80;99.90;;;;;;5032836;28;20373;-76
2022/03/09 10:45:36;;;;;;;5.13;2.47;;;11.10;99.90;;;;;;5010079;28;20042;-76
2022/03/09 10:48:05;;;;;;;4.55;2.95;;;11.00;99.90;;;;;;5017631;28;20466;-76
2022/03/09 10:50:31;;;;;;;3.27;1.80;;;10.90;99.90;;;;;;5009367;28;20038;-77
2022/03/09 10:53:01;;;;;;;4.25;1.90;;;11.10;99.90;;;;;;5022658;28;20033;-76
2022/03/09 10:55:29;;;;;;;;;;;11.40;99.90;;;;;;5032393;28;20029;-76
2022/03/09 10:58:13;;;;;;;5.00;2.25;;;11.40;99.90;;;;;;4999119;28;19920;-76
2022/03/09 11:00:44;;;;;;;4.05;1.63;;;11.30;99.90;;;;;;5017947;28;20048;-76
2022/03/09 11:03:12;;;;;;;2.90;1.10;;;11.50;99.90;;;;;;4992140;28;20166;-77
2022/03/09 11:05:54;;;;;;;4.82;2.60;;;11.50;99.90;;;;;;4993432;28;20057;-77
2022/03/09 11:08:25;;;;;;;4.07;1.83;;;11.40;99.90;;;;;;4992119;28;20065;-77
2022/03/09 11:10:51;;;;;;;4.45;1.60;;;11.50;99.90;;;;;;4997073;28;20036;-76
2022/03/09 11:13:17;;;;;;;2.85;1.52;;;11.60;99.90;;;;;;5029148;28;20041;-76
2022/03/09 11:15:44;;;;;;;3.97;1.45;;;11.70;99.70;;;;;;5013249;28;20029;-77
2022/03/09 11:18:24;;;;;;;6.85;2.75;;;11.80;99.90;;;;;;5013988;28;20200;-76
2022/03/09 11:20:55;;;;;;;5.40;3.10;;;12.10;99.80;;;;;;5010643;28;20173;-77
2022/03/09 11:23:21;;;;;;;3.65;2.15;;;11.50;99.30;;;;;;5015079;28;20067;-77
2022/03/09 11:26:10;;;;;;;3.85;2.20;;;11.80;99.90;;;;;;5013017;28;20433;-76
2022/03/09 11:28:41;;;;;;;5.47;3.10;;;12.30;99.80;;;;;;5007787;28;20049;-77
2022/03/09 11:31:12;;;;;;;4.22;1.92;;;12.30;98.70;;;;;;5012129;28;20385;-76
2022/03/09 11:33:56;;;;;;;3.33;1.63;;;12.40;98.70;;;;;;5007810;28;20033;-76
2022/03/09 11:36:21;;;;;;;4.68;1.85;;;12.50;98.10;;;;;;4991757;28;20033;-76
2022/03/09 11:38:55;;;;;;;3.88;1.80;;;12.60;98.90;;;;;;5014108;28;20442;-76
2022/03/09 11:41:26;;;;;;;6.45;2.35;;;12.70;98.80;;;;;;5007588;28;20056;-76
2022/03/09 11:43:52;;;;;;;8.48;3.67;;;12.70;99.20;;;;;;4997660;28;20694;-77
2022/03/09 11:46:19;;;;;;;10.00;5.00;;;12.70;98.00;;;;;;4990292;28;20128;-77
2022/03/09 11:48:55;;;;;;;7.82;4.38;;;12.10;97.50;;;;;;4996950;28;20156;-76
2022/03/09 11:51:30;;;;;;;8.35;5.50;;;12.50;97.40;;;;;;4996187;28;20383;-77
2022/03/09 11:53:58;;;;;;;5.07;3.17;;;12.50;97.80;;;;;;5018041;28;20021;-77
2022/03/09 11:56:30;;;;;;;8.10;4.13;;;12.90;97.70;;;;;;5011750;28;20042;-77
2022/03/09 11:59:16;;;;;;;5.00;2.90;;;12.90;97.50;;;;;;5013798;28;20056;-77
2022/03/09 12:02:04;;;;;;;5.82;3.05;;;13.20;96.50;;;;;;5007063;28;20120;-77
2022/03/09 12:04:42;;;;;;;7.28;4.18;;;13.40;97.40;;;;;;5007310;28;20081;-77
2022/03/09 12:07:13;;;;;;;6.32;3.35;;;13.00;96.50;;;;;;4987844;28;22022;-77
2022/03/09 12:10:00;;;;;;;9.30;5.68;;;13.00;96.40;;;;;;5031896;28;20414;-77
2022/03/09 12:12:27;;;;;;;8.93;5.22;;;12.70;96.70;;;;;;5014840;28;20030;-77
2022/03/09 12:15:13;;;;;;;7.13;4.10;;;13.00;97.10;;;;;;5016143;28;20026;-77
2022/03/09 12:17:44;;;;;;;6.07;3.47;;;13.10;96.00;;;;;;5031559;28;20030;-77
2022/03/09 12:20:20;;;;;;;6.35;3.30;;;13.20;97.00;;;;;;5030663;28;20394;-77
2022/03/09 12:23:04;;;;;;;6.13;3.53;;;13.50;96.40;;;;;;5008736;28;20034;-77
2022/03/09 12:25:53;;;;;;;9.32;5.43;;;13.70;96.10;;;;;;5009403;28;20658;-77
2022/03/09 12:28:25;;;;;;;5.43;3.08;;;13.10;95.40;;;;;;4999615;28;20065;-77
2022/03/09 12:31:03;;;;;;;9.75;6.18;;;13.40;97.20;;;;;;4992645;28;20041;-77
2022/03/09 12:33:33;;;;;;;7.32;3.65;;;13.10;96.50;;;;;;4997993;28;20065;-77
2022/03/09 12:36:20;;;;;;;6.63;3.53;;;13.60;96.20;;;;;;4992070;28;20032;-77
2022/03/09 12:38:49;;;;;;;8.00;4.28;;;13.70;96.30;;;;;;5015164;28;20113;-78
2022/03/09 12:41:33;;;;;;;9.15;5.68;;;13.60;93.10;;;;;;5017704;28;20072;-77
2022/03/09 12:44:08;;;;;;;8.07;4.93;;;13.40;94.70;;;;;;5000717;28;20056;-77
2022/03/09 12:46:35;;;;;;;8.13;4.93;;;13.40;94.40;;;;;;4996826;28;20053;-78
2022/03/09 12:49:05;;;;;;;8.13;4.95;;;13.50;94.50;;;;;;5016883;28;20037;-77
2022/03/09 12:51:31;;;;;;;6.45;4.10;;;13.50;94.40;;;;;;5017266;28;20131;-77
2022/03/09 12:53:58;;;;;;;7.43;3.42;;;13.70;94.00;;;;;;5018244;28;20053;-77
2022/03/09 12:56:24;;;;;;;6.43;3.67;;;13.90;95.00;;;;;;5026267;28;20037;-77
2022/03/09 12:58:52;;;;;;;6.88;4.40;;;13.90;94.60;;;;;;5001999;28;20180;-77
2022/03/09 13:01:18;;;;;;;7.07;3.28;;;13.80;95.00;;;;;;5015979;28;20053;-77